Terminal Aerodrome Forecast
Issued by NWS

Home | Current Version | Previous Version | Text Only | Print | Product List | Glossary On
Versions: 1 2 3 4 5 6 7 8 9 10 11 12 13 14 15 16 17 18 19 20 21
000
FTUS46 KEKA 250543
TAFCEC
TAF
KCEC 250543Z 2506/2606 16009KT P6SM SCT025 BKN050 WS010/18030KT
     FM250800 14018G25KT 5SM -RA BR BKN025 OVC035 WS010/18030KT
     FM251600 16030KT 6SM -TSRA SCT025 OVC030CB
     FM252000 17027KT P6SM -SHRA OVC025 PROB30 2520/2523 P6SM -TSRA
      BKN025CB
     FM260300 19015KT 3SM SHRA BR SCT007 OVC025=

USA.gov is the U.S. government's official web portal to all federal, state and local government web resources and services.